• Join FlightAware (Why Join?)
  • Login
  • US Flag 
06:39PM EDT


 

Airport Tracker/Info


-or-


 

Live Flight TrackerFlight Track Log ✈ CTL13 ✈ 26-Apr-2013 ✈ KEYE - KMDW

Flight Track Log - Related Links

Times and Time Zones

All times are in EDT time to prevent confusion due to time zone crossing. See the CTL13 flight status page for this flight to view local times or setup timezone preferences in your user account.

Time Position Orientation Groundspeed Altitude Reporting Facility
EDT Latitude Longitude Course Direction KTS MPH feet Rate Location/Type
08:48PM 39.9167 -86.2833 360° North 167 192 2,400  Level Indianapolis TRACON
08:49PM 39.9500 -86.3333 311° West 168 193 2,900 540 Climbing Indianapolis TRACON
08:50PM 39.9833 -86.3667 323° Northwest 166 191 3,500 480 Climbing Indianapolis TRACON
08:51PM 39.9950 -86.3889 304° West 166 191 3,700 360 Climbing Indianapolis Center
08:52PM 40.0353 -86.4372 317° Northwest 167 192 4,100 360 Climbing Indianapolis Center
08:53PM 40.0700 -86.4783 318° Northwest 168 193 4,500 360 Climbing Indianapolis Center
08:54PM 40.1047 -86.5194 318° Northwest 168 193 4,900 240 Climbing Indianapolis Center
08:55PM 40.1392 -86.5611 317° Northwest 167 192 5,100 240 Climbing Indianapolis Center
08:55PM 40.1617 -86.5892 316° Northwest 167 192 5,400 300 Climbing Chicago Center
08:56PM 40.1964 -86.6286 319° Northwest 165 190 5,700 240 Climbing Chicago Center
08:58PM 40.2319 -86.6703 318° Northwest 169 194 6,000 120 Climbing Chicago Center
08:59PM 40.2686 -86.7142 318° Northwest 175 201 6,000  Level Chicago Center
09:00PM 40.3061 -86.7633 315° West 185 213 6,000  Level Chicago Center
09:01PM 40.3472 -86.8169 315° West 179 206 6,000  Level Chicago Center
09:02PM 40.3844 -86.8633 316° Northwest 174 200 6,000  Level Chicago Center
09:03PM 40.4192 -86.9017 320° Northwest 175 201 6,000  Level Chicago Center
09:04PM 40.4550 -86.9456 317° Northwest 174 200 6,000  Level Chicago Center
09:05PM 40.4911 -86.9894 317° Northwest 175 201 6,000  Level Chicago Center
09:06PM 40.5289 -87.0319 319° Northwest 177 204 6,000  Level Chicago Center
09:07PM 40.5706 -87.0833 317° Northwest 177 204 6,100  Climbing Chicago Center
09:08PM 40.6181 -87.1072 339° North 183 211 6,000 -60 Descending Chicago Center
09:09PM 40.6650 -87.1314 339° North 183 211 6,000  Level Chicago Center
09:10PM 40.7136 -87.1536 341° North 185 213 6,000  Level Chicago Center
09:11PM 40.7597 -87.1792 337° Northwest 182 209 6,000  Level Chicago Center
09:12PM 40.8147 -87.2075 339° North 179 206 6,000  Level Chicago Center
09:13PM 40.8608 -87.2331 337° Northwest 181 208 6,100  Climbing Chicago Center
09:14PM 40.9050 -87.2583 337° Northwest 176 203 6,100  Level Chicago Center
09:15PM 40.9506 -87.2836 337° Northwest 178 205 6,100 -60 Level Chicago Center
09:16PM 40.9972 -87.3075 339° North 179 206 6,000 -60 Descending Chicago Center
09:17PM 41.0531 -87.3361 339° North 181 208 6,000  Level Chicago Center
09:18PM 41.0983 -87.3594 339° North 177 204 6,000  Level Chicago Center
09:19PM 41.1433 -87.3836 338° Northwest 177 204 6,000 -540 Level Chicago Center
09:20PM 41.1969 -87.4108 339° North 194 223 4,900 -1,020 Descending Chicago Center
09:21PM 41.2500 -87.4411 337° Northwest 205 236 4,000 -480 Descending Chicago Center
09:22PM 41.3031 -87.4456 356° North 198 228 4,000  Level Chicago Center
09:23PM 41.3658 -87.4517 356° North 193 222 4,000  Level Chicago Center
09:24PM 41.4147 -87.4717 343° North 196 226 4,000  Level Chicago Center
09:25PM 41.4606 -87.4978 337° Northwest 185 213 4,000  Level Chicago Center
09:26PM 41.5067 -87.5244 337° Northwest 183 211 4,000  Level Chicago Center
09:27PM 41.5525 -87.5486 338° Northwest 181 208 4,000 -480 Level Chicago Center
09:28PM 41.6125 -87.5822 337° Northwest 187 215 3,100 -540 Descending Chicago Center
09:30PM 41.6644 -87.6050 342° North 194 223 3,000 -480 Descending Chicago Center
09:30PM 41.7000 -87.6333 329° Northwest 188 216 2,200 -720 Descending Chicago TRACON
09:31PM 41.7500 -87.6833 323° Northwest 177 204 1,700 -420 Descending Chicago TRACON
09:32PM 41.7833 -87.7167 323° Northwest 144 166 1,400 -300 Descending Chicago TRACON